EST,Max TemperatureF,Mean TemperatureF,Min TemperatureF,Max Dew PointF,MeanDew PointF,Min DewpointF,Max Humidity, Mean Humidity, Min Humidity, Max Sea Level PressureIn, Mean Sea Level PressureIn, Min Sea Level PressureIn, Max VisibilityMiles, Mean VisibilityMiles, Min VisibilityMiles, Max Wind SpeedMPH, Mean Wind SpeedMPH, Max Gust SpeedMPH,PrecipitationIn, CloudCover, Events, WindDirDegrees
2014-2-1,52,50,47,53,50,48,100,100,100,30.17,30.13,30.10,10,8,3,6,3,,0.08,8,Rain,10
2014-2-2,77,62,47,64,54,47,100,96,59,30.19,30.13,30.06,10,6,0,7,1,,0.01,6,Fog,175
2014-2-3,79,70,60,70,66,61,100,94,68,30.11,30.04,30.00,10,8,1,16,7,21,0.00,7,,199
2014-2-4,60,56,51,61,56,52,100,100,93,30.22,30.11,30.05,10,5,0,14,2,22,0.00,6,Fog-Rain,83
2014-2-5,78,64,48,72,58,39,100,95,50,30.12,29.99,29.91,10,5,0,16,3,29,0.14,6,Fog-Rain,210
2014-2-6,56,46,36,48,41,32,100,81,52,30.30,30.22,30.13,10,10,9,12,6,18,0.06,5,Rain,11
2014-2-7,58,48,37,46,41,38,100,82,51,30.32,30.25,30.21,10,10,10,9,5,,0.00,3,Rain,23
2014-2-8,58,50,41,48,44,41,100,90,65,30.25,30.18,30.11,10,8,2,8,3,,0.08,5,Rain,9
2014-2-9,67,51,35,51,42,35,100,85,49,30.20,30.13,30.05,10,9,1,12,1,16,0.00,1,,215
2014-2-10,70,55,40,52,48,40,100,79,50,30.14,30.07,30.02,10,9,4,10,2,,0.00,3,,274
2014-2-11,52,45,38,49,43,37,100,87,73,30.25,30.16,30.07,10,10,10,14,7,,0.00,8,Rain,27
2014-2-12,38,36,33,37,35,34,100,100,93,30.21,29.99,29.73,10,9,2,15,9,23,0.42,8,Rain,29
2014-2-13,48,40,33,40,35,34,100,94,66,29.91,29.72,29.65,10,9,3,21,9,28,0.16,7,Rain,297
2014-2-14,63,46,30,46,37,30,99,66,41,30.00,29.92,29.82,10,10,10,14,7,22,0.00,2,,233
2014-2-15,59,50,39,52,41,28,100,69,31,30.13,29.87,29.69,10,10,8,20,11,31,0.07,4,Rain,255
2014-2-16,64,48,31,43,37,30,96,73,33,30.20,30.15,30.09,10,8,2,13,2,,0.00,0,,293
2014-2-17,69,52,35,50,41,36,100,93,39,30.26,30.19,30.16,10,6,1,14,1,,0.00,1,,101
2014-2-18,73,58,44,60,53,45,100,89,63,30.25,30.18,30.14,10,8,0,8,2,,0.00,6,Fog,206
2014-2-19,80,64,48,58,53,47,100,75,37,30.16,30.10,30.04,10,8,1,21,5,25,0.00,1,,227
2014-2-20,81,66,52,66,58,52,100,91,52,30.17,30.11,30.05,10,8,2,15,2,21,0.00,0,,159
2014-2-21,71,66,60,70,64,49,100,96,66,30.07,29.99,29.95,10,8,0,28,8,43,0.50,7,Fog-Rain-Thunderstorm,220
2014-2-22,70,58,45,54,43,34,94,63,28,30.16,30.09,30.05,10,8,2,14,2,,0.00,4,,359
2014-2-23,64,52,41,64,55,42,100,96,81,30.13,30.04,29.98,10,10,8,9,2,,0.00,5,Rain,213
2014-2-24,75,64,52,63,59,51,100,89,42,30.10,30.02,29.96,10,10,10,13,7,18,0.00,5,,286
2014-2-25,76,63,50,63,53,50,100,80,41,30.07,30.01,29.93,10,10,8,13,2,18,0.00,4,,266
2014-2-26,54,50,45,54,50,46,100,100,93,29.92,29.82,29.76,10,9,5,10,3,,0.35,7,Rain,322
2014-2-27,57,47,36,46,36,28,100,73,35,29.99,29.91,29.85,10,10,10,10,5,,0.00,1,,286
2014-2-28,62,45,28,48,33,25,100,66,25,30.20,30.11,29.99,10,9,0,12,2,,0.00,0,,62